createdAt,value
2019-02-20T00:00:52.393Z,97.60
2019-02-20T00:06:00.245Z,97.60
2019-02-20T00:11:06.575Z,97.70
2019-02-20T00:16:12.812Z,97.80
2019-02-20T00:21:20.102Z,98.00
2019-02-20T00:26:26.427Z,97.80
2019-02-20T00:31:32.734Z,98.00
2019-02-20T00:36:39.051Z,98.30
2019-02-20T00:41:45.416Z,98.50
2019-02-20T00:47:10.474Z,98.90
2019-02-20T00:52:35.144Z,98.80
2019-02-20T00:57:41.673Z,98.80
2019-02-20T01:02:48.023Z,98.80
2019-02-20T01:07:54.292Z,99.00
2019-02-20T01:13:01.882Z,98.70
2019-02-20T01:18:08.135Z,98.90
2019-02-20T01:23:15.484Z,99.00
2019-02-20T01:28:21.934Z,99.30
2019-02-20T01:33:29.656Z,99.20
2019-02-20T01:38:35.831Z,99.10
2019-02-20T01:43:42.084Z,99.20
2019-02-20T01:48:48.292Z,99.30
2019-02-20T01:53:54.670Z,99.30
2019-02-20T01:59:01.041Z,99.00
2019-02-20T02:04:10.257Z,99.30
2019-02-20T02:09:16.917Z,99.30
2019-02-20T02:14:23.384Z,99.60
2019-02-20T02:19:29.699Z,99.50
2019-02-20T02:24:35.896Z,99.60
2019-02-20T02:29:43.894Z,99.60
2019-02-20T02:34:51.095Z,99.60
2019-02-20T02:39:57.382Z,99.80
2019-02-20T02:45:05.915Z,99.70
2019-02-20T02:50:12.280Z,99.80
2019-02-20T02:55:19.907Z,99.70
2019-02-20T03:00:27.163Z,99.80
2019-02-20T03:05:33.400Z,99.90
2019-02-20T03:10:39.637Z,99.90
2019-02-20T03:15:46.333Z,99.90
2019-02-20T03:20:52.683Z,99.80
2019-02-20T03:25:58.876Z,99.80
2019-02-20T03:31:06.842Z,99.90
2019-02-20T03:36:13.171Z,99.80
2019-02-20T03:41:19.416Z,99.80
2019-02-20T03:46:27.295Z,99.70
2019-02-20T03:51:33.520Z,99.80
2019-02-20T03:56:39.744Z,99.70
2019-02-20T04:01:46.105Z,99.80
2019-02-20T04:06:54.067Z,99.70
2019-02-20T04:12:00.370Z,99.80
2019-02-20T04:17:09.519Z,99.60
2019-02-20T04:22:25.250Z,99.70
2019-02-20T04:27:35.940Z,99.80
2019-02-20T04:32:45.162Z,99.80
2019-02-20T04:37:51.475Z,99.80
2019-02-20T04:42:58.521Z,99.70
2019-02-20T04:48:05.719Z,99.80
2019-02-20T04:53:12.033Z,99.90
2019-02-20T04:58:20.311Z,99.90
2019-02-20T05:03:26.617Z,99.80
2019-02-20T05:08:32.937Z,99.70
2019-02-20T05:13:39.279Z,99.90
2019-02-20T05:18:45.517Z,99.90
2019-02-20T05:23:52.833Z,99.90
2019-02-20T05:28:59.467Z,99.90
2019-02-20T05:34:05.860Z,99.90
2019-02-20T05:39:12.207Z,99.90
2019-02-20T05:44:20.055Z,99.80
2019-02-20T05:49:26.350Z,99.90
2019-02-20T05:54:35.011Z,99.80
2019-02-20T05:59:40.805Z,99.80
2019-02-20T06:04:47.188Z,99.90
2019-02-20T06:09:53.584Z,99.90
2019-02-20T06:15:01.052Z,99.90
2019-02-20T06:20:08.954Z,99.90
2019-02-20T06:25:15.302Z,99.90
2019-02-20T06:30:21.583Z,99.90
2019-02-20T06:35:27.918Z,99.90
2019-02-20T06:40:34.246Z,99.90
2019-02-20T06:45:43.282Z,99.90
2019-02-20T06:50:49.485Z,99.90
2019-02-20T06:55:55.762Z,99.90
2019-02-20T07:01:02.047Z,99.90
2019-02-20T07:06:41.523Z,99.90
2019-02-20T07:12:59.566Z,99.90
2019-02-20T07:18:25.490Z,99.90
2019-02-20T07:23:48.405Z,99.90
2019-02-20T07:29:37.602Z,99.90
2019-02-20T07:34:44.001Z,99.90
2019-02-20T07:39:53.339Z,99.90
2019-02-20T07:45:01.063Z,99.90
2019-02-20T07:50:09.509Z,99.70
2019-02-20T07:55:16.220Z,99.60
2019-02-20T08:00:25.357Z,99.90
2019-02-20T08:05:31.654Z,99.70
2019-02-20T08:10:41.225Z,99.80
2019-02-20T08:15:47.476Z,99.40
2019-02-20T08:20:53.750Z,99.40
2019-02-20T08:26:00.234Z,99.50
2019-02-20T08:31:06.772Z,99.20
2019-02-20T08:36:13.162Z,99.10
2019-02-20T08:41:19.419Z,98.80
2019-02-20T08:46:26.630Z,99.20
2019-02-20T08:51:33.176Z,98.70
2019-02-20T08:56:39.520Z,98.50
2019-02-20T09:01:45.986Z,98.70
2019-02-20T09:06:52.352Z,98.10
2019-02-20T09:11:58.746Z,98.30
2019-02-20T09:17:05.244Z,97.50
2019-02-20T09:22:11.619Z,96.90
2019-02-20T09:27:17.965Z,95.60
2019-02-20T09:32:24.198Z,94.70
2019-02-20T09:37:30.599Z,94.10
2019-02-20T09:42:38.264Z,93.00
2019-02-20T09:47:44.607Z,94.10
2019-02-20T09:52:52.763Z,94.80
2019-02-20T09:58:01.381Z,95.30
2019-02-20T10:03:08.624Z,94.90
2019-02-20T10:08:15.293Z,95.00
2019-02-20T10:13:23.399Z,95.30
2019-02-20T10:18:29.669Z,95.10
2019-02-20T10:23:37.819Z,94.00
2019-02-20T10:28:44.103Z,93.30
2019-02-20T10:33:52.423Z,92.40
2019-02-20T10:38:58.820Z,91.40
2019-02-20T10:44:05.496Z,90.10
2019-02-20T10:49:11.989Z,89.00
2019-02-20T10:54:18.657Z,86.50
2019-02-20T10:59:25.008Z,87.70
2019-02-20T11:04:31.880Z,87.40
2019-02-20T11:09:38.116Z,86.60
2019-02-20T11:14:44.471Z,83.80
2019-02-20T11:19:50.771Z,87.00
2019-02-20T11:24:59.959Z,86.70
2019-02-20T11:30:07.710Z,90.20
2019-02-20T11:35:14.185Z,89.30
2019-02-20T11:40:20.534Z,90.00
2019-02-20T11:45:29.328Z,89.40
2019-02-20T11:50:35.582Z,89.00
2019-02-20T11:55:42.018Z,89.60
2019-02-20T12:00:48.943Z,87.90
2019-02-20T12:05:55.447Z,88.00
2019-02-20T12:11:01.806Z,87.00
2019-02-20T12:16:10.412Z,87.20
2019-02-20T12:21:16.592Z,86.70
2019-02-20T12:26:24.049Z,86.40
2019-02-20T12:31:30.762Z,86.80
2019-02-20T12:36:37.019Z,83.40
2019-02-20T12:41:43.353Z,84.00
2019-02-20T12:46:49.667Z,83.50
2019-02-20T12:51:55.888Z,83.10
2019-02-20T12:57:02.162Z,82.60
2019-02-20T13:02:08.343Z,80.40
2019-02-20T13:07:14.668Z,79.00
2019-02-20T13:12:20.965Z,79.70
2019-02-20T13:17:27.198Z,80.30
2019-02-20T13:22:33.427Z,83.00
2019-02-20T13:27:40.331Z,82.20
2019-02-20T13:32:47.857Z,83.50
2019-02-20T13:37:54.189Z,81.60
2019-02-20T13:43:01.732Z,82.70
2019-02-20T13:48:08.432Z,82.00
2019-02-20T13:53:15.085Z,81.60
2019-02-20T13:58:21.479Z,80.20
2019-02-20T14:03:27.929Z,81.20
2019-02-20T14:08:34.268Z,81.00
2019-02-20T14:13:40.763Z,81.00
2019-02-20T14:18:47.011Z,79.10
2019-02-20T14:23:53.292Z,77.90
2019-02-20T14:28:59.644Z,79.60
2019-02-20T14:34:06.174Z,76.70
2019-02-20T14:39:12.553Z,77.90
2019-02-20T14:44:20.939Z,77.30
2019-02-20T14:49:28.892Z,77.30
2019-02-20T14:54:35.309Z,76.20
2019-02-20T14:59:41.764Z,77.60
2019-02-20T15:04:48.023Z,77.70
2019-02-20T15:09:54.304Z,78.40
2019-02-20T15:15:10.103Z,78.90
2019-02-20T15:20:11.641Z,79.60
2019-02-20T15:25:19.635Z,80.50
2019-02-20T15:30:26.076Z,79.70
2019-02-20T15:35:33.047Z,80.90
2019-02-20T15:40:39.351Z,82.10
2019-02-20T15:45:47.117Z,82.60
2019-02-20T15:50:53.789Z,83.50
2019-02-20T15:56:00.694Z,83.50
2019-02-20T16:01:09.359Z,83.30
2019-02-20T16:06:15.795Z,83.40
2019-02-20T16:11:25.254Z,83.30
2019-02-20T16:16:31.741Z,82.20
2019-02-20T16:21:38.210Z,82.70
2019-02-20T16:26:44.637Z,82.10
2019-02-20T16:31:54.259Z,82.50
2019-02-20T16:37:00.637Z,83.30
2019-02-20T16:42:07.067Z,83.20
2019-02-20T16:47:13.468Z,83.10
2019-02-20T16:52:19.795Z,83.40
2019-02-20T16:57:26.782Z,83.70
2019-02-20T17:02:37.403Z,83.60
2019-02-20T17:07:44.081Z,84.60
2019-02-20T17:12:50.390Z,84.20
2019-02-20T17:17:56.760Z,84.40
2019-02-20T17:23:04.656Z,84.80
2019-02-20T17:28:10.973Z,85.10
2019-02-20T17:33:17.531Z,84.70
2019-02-20T17:38:23.828Z,84.70
2019-02-20T17:43:30.599Z,84.40
2019-02-20T17:48:37.137Z,86.40
2019-02-20T17:53:43.506Z,85.40
2019-02-20T17:58:50.214Z,86.00
2019-02-20T18:03:58.145Z,86.20
2019-02-20T18:09:07.232Z,86.50
2019-02-20T18:14:13.776Z,87.30
2019-02-20T18:19:20.159Z,86.90
2019-02-20T18:24:26.454Z,86.30
2019-02-20T18:29:32.835Z,86.00
2019-02-20T18:34:45.188Z,87.10
2019-02-20T18:39:51.859Z,87.40
2019-02-20T18:44:58.194Z,86.60
2019-02-20T18:50:06.219Z,87.70
2019-02-20T18:55:12.759Z,88.00
2019-02-20T19:00:19.041Z,88.10
2019-02-20T19:05:25.499Z,88.90
2019-02-20T19:10:36.411Z,88.50
2019-02-20T19:16:24.538Z,88.80
2019-02-20T19:22:06.620Z,90.00
2019-02-20T19:27:39.479Z,90.30
2019-02-20T19:33:25.033Z,90.60
2019-02-20T19:39:09.038Z,90.20
2019-02-20T19:44:58.234Z,90.80
2019-02-20T19:50:38.805Z,90.60
2019-02-20T19:56:14.059Z,90.80
2019-02-20T20:01:55.545Z,90.70
2019-02-20T20:07:35.154Z,91.00
2019-02-20T20:13:08.970Z,91.20
2019-02-20T20:18:32.638Z,90.90
2019-02-20T20:24:27.916Z,90.90
2019-02-20T20:30:20.542Z,91.20
2019-02-20T20:36:06.564Z,91.30
2019-02-20T20:42:10.723Z,91.50
2019-02-20T20:47:40.898Z,91.70
2019-02-20T20:53:42.115Z,92.00
2019-02-20T20:59:34.603Z,92.20
2019-02-20T21:05:32.947Z,92.40
2019-02-20T21:11:16.307Z,92.90
2019-02-20T21:16:47.295Z,93.30
2019-02-20T21:22:52.860Z,93.60
2019-02-20T21:28:23.916Z,94.00
2019-02-20T21:34:02.131Z,94.00
2019-02-20T21:39:45.268Z,94.20
2019-02-20T21:45:06.517Z,94.30
2019-02-20T21:51:08.228Z,94.50
2019-02-20T21:56:49.961Z,94.70
2019-02-20T22:02:17.487Z,94.70
2019-02-20T22:07:55.265Z,94.80
2019-02-20T22:13:48.563Z,95.20
2019-02-20T22:19:27.162Z,95.30
2019-02-20T22:25:07.867Z,95.50
2019-02-20T22:31:00.295Z,95.90
2019-02-20T22:36:42.357Z,95.80
2019-02-20T22:42:39.277Z,96.10
2019-02-20T22:48:47.813Z,96.20
2019-02-20T22:54:23.813Z,96.30
2019-02-20T23:00:02.742Z,96.50
2019-02-20T23:05:42.193Z,96.60
2019-02-20T23:11:34.361Z,96.60
2019-02-20T23:16:40.566Z,96.90
2019-02-20T23:21:46.845Z,97.30
2019-02-20T23:26:53.147Z,97.20
2019-02-20T23:31:59.481Z,97.30
2019-02-20T23:37:05.853Z,96.80
2019-02-20T23:42:12.254Z,96.90
2019-02-20T23:47:18.606Z,97.30
2019-02-20T23:52:25.415Z,97.50
2019-02-20T23:57:34.699Z,98.00
